Atlantis, LA

4:36 PM CDT on May 06, 2015 (GMT -0500)
MARITIME | | Change Station
CLOSE
Current Station
Personal Weather Station
Location: Cancun,
Elevation: 0 ft
Nearby Weather Stations

Elev 0 ft 22.40 °N, 86.50 °W | Updated 6 hours ago

Partly Cloudy
Partly Cloudy
80 °F
Feels Like 83 °F
N
9
Wind Variable Wind from ESE
Gusts mph

Today
High -- | Low -- °F
--% Chance of Precip.
Yesterday
High -- | Low -- °F
Precip. -- in
6:13 AM 7:26 PM
Waning Gibbous, 92% visible
Pressure 30.06 in
Visibility 7.0 miles
Clouds Scattered Clouds 6500 ft
Heat Index 83 °F
Dew Point 66 °F
Humidity 62%
Rainfall in
Snow Depth Not available.
UV 7 out of 12
Pollen 5.80 out of 12
Air Quality Not available.
Flu Activity Sporadic
METAR KXPY 062035Z AUTO 09006KT 7SM SCT065 26/20 A3006 RMK A01

More Conditions Fewer Conditions

Pressure 30.06 in
Visibility 7.0 miles
Clouds Scattered Clouds 6500 ft
Heat Index 83 °F
Dew Point 66 °F
Humidity 62%
Rainfall in
Snow Depth Not available.
UV 7 out of 12
Pollen 5.80 out of 12
Air Quality Not available.
Flu Activity Sporadic
METAR KXPY 062035Z AUTO 09006KT 7SM SCT065 26/20 A3006 RMK A01

More Conditions Fewer Conditions

10-Day Weather Forecast

Almanac

Astronomy

May. 06, 2015 Rise Set
Actual Time
Civil Twilight
Nautical Twilight
Astronomical Twilight
Moon
Length of Visible Light
Length of Day
Tomorrow will be .
, % of the Moon is Illuminated

Today's Extremes

State Highs State Lows

Community

WunderPhotos

Upload Photos

1,819,022 photos uploaded!

WunderBlogs® & News

Nearby

Air Quality

  Air Quality AQ Index Pollutant
Not available.

Snow Depth

Station Depth Elevation

Earthquake Activity

City Distance Mag. Time & Date
Minimum magnitude displayed is 2.5.

Coastal Water Temperatures

Place Temperature

Stations

Nearby Weather Stations

Station Location Temp. Windchill Dew Point Humidity Wind Precip. Elev Updated Type